Time,TemperatureF,DewpointF,PressureIn,WindDirection,WindDirectionDegrees,WindSpeedMPH,WindSpeedGustMPH,Humidity,HourlyPrecipIn,Conditions,Clouds,dailyrainin,SoftwareType,DateUTC
2013-09-25 00:01:00,61.3,37.5,29.82,SW,220,0.0,0.0,41,0.00,,---,0.00,VWS V14.01,2013-09-25 07:01:00,
2013-09-25 00:06:00,61.0,37.1,29.82,SW,220,0.0,0.0,41,0.00,,---,0.00,VWS V14.01,2013-09-25 07:06:00,
2013-09-25 00:11:00,60.6,37.4,29.82,SW,219,0.0,0.0,42,0.00,,---,0.00,VWS V14.01,2013-09-25 07:11:00,
2013-09-25 00:16:00,59.9,36.8,29.82,SW,220,0.0,0.0,42,0.00,,---,0.00,VWS V14.01,2013-09-25 07:16:00,
2013-09-25 00:21:00,59.9,36.8,29.82,SW,220,0.0,0.0,42,0.00,,---,0.00,VWS V14.01,2013-09-25 07:21:00,
2013-09-25 00:26:00,60.4,37.3,29.82,SW,220,0.0,0.0,42,0.00,,---,0.00,VWS V14.01,2013-09-25 07:26:00,
2013-09-25 00:31:00,60.6,37.4,29.82,SW,220,0.0,0.0,42,0.00,,---,0.00,VWS V14.01,2013-09-25 07:31:00,
2013-09-25 00:36:00,60.8,37.0,29.82,SW,220,0.0,0.0,41,0.00,,---,0.00,VWS V14.01,2013-09-25 07:36:00,
2013-09-25 00:41:00,61.0,37.1,29.82,SW,220,0.0,0.0,41,0.00,,---,0.00,VWS V14.01,2013-09-25 07:41:00,
2013-09-25 00:46:00,60.6,37.4,29.82,SW,220,0.0,0.0,42,0.00,,---,0.00,VWS V14.01,2013-09-25 07:46:00,
2013-09-25 00:51:00,60.3,37.1,29.82,SW,220,0.0,0.0,42,0.00,,---,0.00,VWS V14.01,2013-09-25 07:51:00,
2013-09-25 00:56:00,59.7,36.6,29.82,SW,220,0.0,0.0,42,0.00,,---,0.00,VWS V14.01,2013-09-25 07:56:00,
2013-09-25 01:01:00,59.5,36.5,29.82,SW,220,0.0,0.0,42,0.00,,---,0.00,VWS V14.01,2013-09-25 08:01:00,
2013-09-25 01:07:00,59.7,36.6,29.82,SW,220,0.0,0.0,42,0.00,,---,0.00,VWS V14.01,2013-09-25 08:07:00,
2013-09-25 01:12:00,59.9,36.8,29.82,SW,220,0.0,0.0,42,0.00,,---,0.00,VWS V14.01,2013-09-25 08:12:00,
2013-09-25 01:17:00,59.7,36.6,29.82,SW,220,0.0,0.0,42,0.00,,---,0.00,VWS V14.01,2013-09-25 08:17:00,
2013-09-25 01:22:00,59.4,36.3,29.82,SW,220,0.0,0.0,42,0.00,,---,0.00,VWS V14.01,2013-09-25 08:22:00,
2013-09-25 01:27:00,59.0,36.0,29.82,SW,220,0.0,0.0,42,0.00,,---,0.00,VWS V14.01,2013-09-25 08:27:00,
2013-09-25 01:32:00,58.8,35.8,29.82,SW,220,0.0,0.0,42,0.00,,---,0.00,VWS V14.01,2013-09-25 08:32:00,
2013-09-25 01:37:00,58.5,35.5,29.82,SW,220,0.0,0.0,42,0.00,,---,0.00,VWS V14.01,2013-09-25 08:37:00,
2013-09-25 01:42:00,58.3,35.3,29.82,SW,220,0.0,0.0,42,0.00,,---,0.00,VWS V14.01,2013-09-25 08:42:00,
2013-09-25 01:47:00,58.5,35.5,29.82,SW,220,0.0,0.0,42,0.00,,---,0.00,VWS V14.01,2013-09-25 08:47:00,
2013-09-25 01:52:00,58.8,35.8,29.82,SW,220,0.0,0.0,42,0.00,,---,0.00,VWS V14.01,2013-09-25 08:52:00,
2013-09-25 01:57:00,59.2,36.1,29.82,SW,220,0.0,0.0,42,0.00,,---,0.00,VWS V14.01,2013-09-25 08:57:00,
2013-09-25 02:02:00,59.5,36.5,29.82,SW,220,0.0,0.0,42,0.00,,---,0.00,VWS V14.01,2013-09-25 09:02:00,
2013-09-25 02:07:00,59.9,36.8,29.82,SW,220,0.0,0.0,42,0.00,,---,0.00,VWS V14.01,2013-09-25 09:07:00,
2013-09-25 02:12:00,60.1,36.9,29.82,SW,220,0.0,0.0,42,0.00,,---,0.00,VWS V14.01,2013-09-25 09:12:00,
2013-09-25 02:17:00,60.1,36.9,29.82,SW,220,0.0,0.0,42,0.00,,---,0.00,VWS V14.01,2013-09-25 09:17:00,
2013-09-25 02:22:00,59.7,36.6,29.82,SW,220,0.0,0.0,42,0.00,,---,0.00,VWS V14.01,2013-09-25 09:22:00,
2013-09-25 02:27:00,59.4,36.3,29.79,SW,220,0.0,0.0,42,0.00,,---,0.00,VWS V14.01,2013-09-25 09:27:00,
2013-09-25 02:32:00,59.2,36.1,29.79,SW,220,0.0,0.0,42,0.00,,---,0.00,VWS V14.01,2013-09-25 09:32:00,
2013-09-25 02:37:00,59.0,36.0,29.79,SW,220,0.0,0.0,42,0.00,,---,0.00,VWS V14.01,2013-09-25 09:37:00,
2013-09-25 02:42:00,58.8,35.8,29.79,SW,220,0.0,0.0,42,0.00,,---,0.00,VWS V14.01,2013-09-25 09:42:00,
2013-09-25 02:47:00,58.5,35.5,29.79,SW,220,0.0,0.0,42,0.00,,---,0.00,VWS V14.01,2013-09-25 09:47:00,
2013-09-25 02:52:00,58.3,35.3,29.79,SW,220,0.0,0.0,42,0.00,,---,0.00,VWS V14.01,2013-09-25 09:52:00,
2013-09-25 02:57:00,57.9,35.0,29.79,SW,220,0.0,0.0,42,0.00,,---,0.00,VWS V14.01,2013-09-25 09:57:00,
2013-09-25 03:02:00,57.6,34.7,29.79,SW,220,0.0,0.0,42,0.00,,---,0.00,VWS V14.01,2013-09-25 10:02:00,
2013-09-25 03:07:00,57.4,34.5,29.79,SW,220,0.0,0.0,42,0.00,,---,0.00,VWS V14.01,2013-09-25 10:07:00,
2013-09-25 03:12:00,57.2,34.3,29.79,SW,220,0.0,0.0,42,0.00,,---,0.00,VWS V14.01,2013-09-25 10:12:00,
2013-09-25 03:17:00,56.7,33.8,29.79,SW,220,0.0,0.0,42,0.00,,---,0.00,VWS V14.01,2013-09-25 10:17:00,
2013-09-25 03:22:00,56.7,33.8,29.79,SW,220,0.0,0.0,42,0.00,,---,0.00,VWS V14.01,2013-09-25 10:22:00,
2013-09-25 03:27:00,56.7,33.8,29.79,SW,218,0.0,0.0,42,0.00,,---,0.00,VWS V14.01,2013-09-25 10:27:00,
2013-09-25 03:32:00,56.8,34.0,29.79,SW,218,0.0,0.0,42,0.00,,---,0.00,VWS V14.01,2013-09-25 10:32:00,
2013-09-25 03:37:00,56.8,34.0,29.79,SW,219,0.0,0.0,42,0.00,,---,0.00,VWS V14.01,2013-09-25 10:37:00,
2013-09-25 03:42:00,57.2,34.3,29.79,SW,218,0.0,0.0,42,0.00,,---,0.00,VWS V14.01,2013-09-25 10:42:00,
2013-09-25 03:47:00,57.2,34.3,29.79,SW,219,0.0,0.0,42,0.00,,---,0.00,VWS V14.01,2013-09-25 10:47:00,
2013-09-25 03:53:00,57.2,34.3,29.79,SW,219,0.0,0.0,42,0.00,,---,0.00,VWS V14.01,2013-09-25 10:53:00,
2013-09-25 03:58:00,56.8,34.0,29.79,SW,219,0.0,0.0,42,0.00,,---,0.00,VWS V14.01,2013-09-25 10:58:00,
2013-09-25 04:03:00,56.8,34.0,29.79,SW,219,0.0,0.0,42,0.00,,---,0.00,VWS V14.01,2013-09-25 11:03:00,
2013-09-25 04:08:00,57.0,34.2,29.79,SW,219,0.0,0.0,42,0.00,,---,0.00,VWS V14.01,2013-09-25 11:08:00,
2013-09-25 04:13:00,56.7,33.8,29.79,WSW,247,0.0,0.0,42,0.00,,---,0.00,VWS V14.01,2013-09-25 11:13:00,
2013-09-25 04:18:00,55.4,32.7,29.79,WNW,297,0.0,0.0,42,0.00,,---,0.00,VWS V14.01,2013-09-25 11:18:00,
2013-09-25 04:23:00,55.2,33.1,29.79,WNW,296,0.0,0.0,43,0.00,,---,0.00,VWS V14.01,2013-09-25 11:23:00,
2013-09-25 04:28:00,55.0,33.0,29.79,WNW,289,0.0,0.0,43,0.00,,---,0.00,VWS V14.01,2013-09-25 11:28:00,
2013-09-25 04:33:00,55.0,33.0,29.79,WNW,289,0.0,0.0,43,0.00,,---,0.00,VWS V14.01,2013-09-25 11:33:00,
2013-09-25 04:38:00,55.0,33.0,29.79,WNW,289,0.0,0.0,43,0.00,,---,0.00,VWS V14.01,2013-09-25 11:38:00,
2013-09-25 04:43:00,55.0,33.0,29.79,SSW,211,0.0,0.0,43,0.00,,---,0.00,VWS V14.01,2013-09-25 11:43:00,
2013-09-25 04:48:00,55.6,32.9,29.79,SSW,204,0.0,0.0,42,0.00,,---,0.00,VWS V14.01,2013-09-25 11:48:00,
2013-09-25 04:53:00,56.3,33.5,29.79,SW,217,0.0,0.0,42,0.00,,---,0.00,VWS V14.01,2013-09-25 11:53:00,
2013-09-25 04:58:00,56.3,33.5,29.79,SW,217,0.0,0.0,42,0.00,,---,0.00,VWS V14.01,2013-09-25 11:58:00,
2013-09-25 05:03:00,57.0,34.2,29.79,SW,217,0.0,0.0,42,0.00,,---,0.00,VWS V14.01,2013-09-25 12:03:00,
2013-09-25 05:08:00,56.7,33.8,29.79,SW,217,0.0,0.0,42,0.00,,---,0.00,VWS V14.01,2013-09-25 12:08:00,
2013-09-25 05:13:00,56.5,33.7,29.79,SW,217,0.0,0.0,42,0.00,,---,0.00,VWS V14.01,2013-09-25 12:13:00,
2013-09-25 05:18:00,56.5,33.7,29.79,SSW,213,0.0,0.0,42,0.00,,---,0.00,VWS V14.01,2013-09-25 12:18:00,
2013-09-25 05:23:00,56.5,33.7,29.79,SW,217,0.0,0.0,42,0.00,,---,0.00,VWS V14.01,2013-09-25 12:23:00,
2013-09-25 05:28:00,56.1,33.4,29.79,SW,217,0.0,0.0,42,0.00,,---,0.00,VWS V14.01,2013-09-25 12:28:00,
2013-09-25 05:29:00,56.1,33.4,29.79,SW,217,0.0,0.0,42,0.00,,---,0.00,VWS V14.01,2013-09-25 12:29:00,
2013-09-25 05:34:00,55.6,32.9,29.79,SW,217,0.0,0.0,42,0.00,,---,0.00,VWS V14.01,2013-09-25 12:34:00,
2013-09-25 05:39:00,55.0,33.0,29.79,SW,217,0.0,0.0,43,0.00,,---,0.00,VWS V14.01,2013-09-25 12:39:00,
2013-09-25 05:44:00,54.3,32.3,29.79,SW,217,0.0,0.0,43,0.00,,---,0.00,VWS V14.01,2013-09-25 12:44:00,
2013-09-25 05:49:00,54.3,32.3,29.79,SW,217,0.0,0.0,43,0.00,,---,0.00,VWS V14.01,2013-09-25 12:49:00,
2013-09-25 05:54:00,53.1,31.2,29.79,SW,217,0.0,0.0,43,0.00,,---,0.00,VWS V14.01,2013-09-25 12:54:00,
2013-09-25 05:59:00,52.7,30.9,29.79,SW,217,0.0,0.0,43,0.00,,---,0.00,VWS V14.01,2013-09-25 12:59:00,
2013-09-25 06:04:00,52.5,30.7,29.79,SW,217,0.0,0.0,43,0.00,,---,0.00,VWS V14.01,2013-09-25 13:04:00,
2013-09-25 06:09:00,52.5,30.7,29.79,SW,217,0.0,0.0,43,0.00,,---,0.00,VWS V14.01,2013-09-25 13:09:00,
2013-09-25 06:14:00,52.5,30.7,29.79,SW,217,0.0,0.0,43,0.00,,---,0.00,VWS V14.01,2013-09-25 13:14:00,
2013-09-25 06:19:00,52.9,31.0,29.79,SW,218,0.0,0.0,43,0.00,,---,0.00,VWS V14.01,2013-09-25 13:19:00,
2013-09-25 06:24:00,53.1,31.2,29.79,SW,217,0.0,0.0,43,0.00,,---,0.00,VWS V14.01,2013-09-25 13:24:00,
2013-09-25 06:29:00,53.1,31.2,29.76,SW,217,0.0,0.0,43,0.00,,---,0.00,VWS V14.01,2013-09-25 13:29:00,
2013-09-25 06:35:00,53.1,31.2,29.76,SW,217,0.0,0.0,43,0.00,,---,0.00,VWS V14.01,2013-09-25 13:35:00,
2013-09-25 06:40:00,53.2,31.3,29.76,SW,217,0.0,0.0,43,0.00,,---,0.00,VWS V14.01,2013-09-25 13:40:00,
2013-09-25 06:45:00,53.4,31.5,29.76,SW,217,0.0,0.0,43,0.00,,---,0.00,VWS V14.01,2013-09-25 13:45:00,
2013-09-25 06:50:00,54.0,32.0,29.76,SW,217,0.0,0.0,43,0.00,,---,0.00,VWS V14.01,2013-09-25 13:50:00,
2013-09-25 06:55:00,54.3,32.3,29.76,SW,217,0.0,0.0,43,0.00,,---,0.00,VWS V14.01,2013-09-25 13:55:00,
2013-09-25 07:00:00,55.0,33.0,29.76,SW,217,0.0,0.0,43,0.00,,---,0.00,VWS V14.01,2013-09-25 14:00:00,
2013-09-25 07:05:00,55.6,32.9,29.79,WSW,243,0.0,0.0,42,0.00,,---,0.00,VWS V14.01,2013-09-25 14:05:00,
2013-09-25 07:10:00,56.3,33.5,29.79,West,280,0.0,0.0,42,0.00,,---,0.00,VWS V14.01,2013-09-25 14:10:00,
2013-09-25 07:15:00,56.7,33.8,29.79,WNW,301,0.0,0.0,42,0.00,,---,0.00,VWS V14.01,2013-09-25 14:15:00,
2013-09-25 07:20:00,57.2,34.3,29.79,NW,304,0.0,0.0,42,0.00,,---,0.00,VWS V14.01,2013-09-25 14:20:00,
2013-09-25 07:25:00,57.9,35.0,29.79,NW,305,0.0,0.0,42,0.00,,---,0.00,VWS V14.01,2013-09-25 14:25:00,
2013-09-25 07:30:00,59.0,36.0,29.79,NW,307,0.0,0.0,42,0.00,,---,0.00,VWS V14.01,2013-09-25 14:30:00,
2013-09-25 07:35:00,59.7,36.6,29.79,NW,307,0.0,0.0,42,0.00,,---,0.00,VWS V14.01,2013-09-25 14:35:00,
2013-09-25 07:40:00,60.6,37.4,29.79,NW,311,0.0,0.0,42,0.00,,---,0.00,VWS V14.01,2013-09-25 14:40:00,
2013-09-25 07:45:00,61.3,37.5,29.79,NW,321,0.0,0.0,41,0.00,,---,0.00,VWS V14.01,2013-09-25 14:45:00,
2013-09-25 07:50:00,61.7,37.8,29.79,NNW,330,0.0,0.0,41,0.00,,---,0.00,VWS V14.01,2013-09-25 14:50:00,
2013-09-25 07:55:00,62.1,38.1,29.79,NW,309,3.1,4.9,41,0.00,,---,0.00,VWS V14.01,2013-09-25 14:55:00,
2013-09-25 08:00:00,62.6,38.6,29.79,WNW,293,0.0,0.0,41,0.00,,---,0.00,VWS V14.01,2013-09-25 15:00:00,
2013-09-25 08:05:00,63.1,39.1,29.79,NW,306,4.9,4.9,41,0.00,,---,0.00,VWS V14.01,2013-09-25 15:05:00,
2013-09-25 08:10:00,64.2,40.0,29.79,WNW,294,3.6,3.6,41,0.00,,---,0.00,VWS V14.01,2013-09-25 15:10:00,
2013-09-25 08:15:00,64.9,40.1,29.79,WNW,291,0.0,0.0,40,0.00,,---,0.00,VWS V14.01,2013-09-25 15:15:00,
2013-09-25 08:20:00,65.7,40.7,29.79,NW,319,0.0,0.0,40,0.00,,---,0.00,VWS V14.01,2013-09-25 15:20:00,
2013-09-25 08:25:00,66.4,41.3,29.79,WNW,291,0.0,0.0,40,0.00,,---,0.00,VWS V14.01,2013-09-25 15:25:00,
2013-09-25 08:30:00,66.9,41.8,29.79,NW,324,0.0,0.0,40,0.00,,---,0.00,VWS V14.01,2013-09-25 15:30:00,
2013-09-25 08:35:00,67.3,42.2,29.79,NNW,342,0.0,0.0,40,0.00,,---,0.00,VWS V14.01,2013-09-25 15:35:00,
2013-09-25 08:40:00,67.6,42.5,29.79,NNW,333,0.0,0.0,40,0.00,,---,0.00,VWS V14.01,2013-09-25 15:40:00,
2013-09-25 08:45:00,68.0,42.8,29.79,NNE,12,0.0,0.0,40,0.00,,---,0.00,VWS V14.01,2013-09-25 15:45:00,
2013-09-25 08:50:00,68.2,43.0,29.79,NNE,21,0.0,0.0,40,0.00,,---,0.00,VWS V14.01,2013-09-25 15:50:00,
2013-09-25 08:55:00,68.5,43.3,29.79,North,0,0.0,0.0,40,0.00,,---,0.00,VWS V14.01,2013-09-25 15:55:00,
2013-09-25 09:00:00,68.9,43.6,29.79,North,0,0.0,0.0,40,0.00,,---,0.00,VWS V14.01,2013-09-25 16:00:00,
2013-09-25 09:06:00,69.3,43.9,29.79,North,357,0.0,0.0,40,0.00,,---,0.00,VWS V14.01,2013-09-25 16:06:00,
2013-09-25 09:11:00,69.6,44.2,29.79,NNE,20,0.0,0.0,40,0.00,,---,0.00,VWS V14.01,2013-09-25 16:11:00,
2013-09-25 09:16:00,70.0,43.9,29.79,NW,323,0.0,0.0,39,0.00,,---,0.00,VWS V14.01,2013-09-25 16:16:00,
2013-09-25 09:21:00,70.2,44.1,29.79,WNW,297,0.0,0.0,39,0.00,,---,0.00,VWS V14.01,2013-09-25 16:21:00,
2013-09-25 09:26:00,70.7,44.5,29.79,North,350,4.0,4.0,39,0.00,,---,0.00,VWS V14.01,2013-09-25 16:26:00,
2013-09-25 09:31:00,70.9,44.7,29.79,WNW,287,0.0,0.0,39,0.00,,---,0.00,VWS V14.01,2013-09-25 16:31:00,
2013-09-25 09:36:00,71.1,44.9,29.79,NW,319,0.0,0.0,39,0.00,,---,0.00,VWS V14.01,2013-09-25 16:36:00,
2013-09-25 09:41:00,71.2,45.0,29.79,NNE,21,2.7,4.9,39,0.00,,---,0.00,VWS V14.01,2013-09-25 16:41:00,
2013-09-25 09:46:00,71.4,45.2,29.79,North,353,5.4,5.4,39,0.00,,---,0.00,VWS V14.01,2013-09-25 16:46:00,
2013-09-25 09:51:00,71.8,45.5,29.79,NE,45,0.0,0.0,39,0.00,,---,0.00,VWS V14.01,2013-09-25 16:51:00,
2013-09-25 09:56:00,72.9,46.5,29.79,East,96,5.8,5.8,39,0.00,,---,0.00,VWS V14.01,2013-09-25 16:56:00,
2013-09-25 10:01:00,73.9,46.8,29.79,SSE,161,0.0,0.0,38,0.00,,---,0.00,VWS V14.01,2013-09-25 17:01:00,
2013-09-25 10:06:00,75.0,47.7,29.79,ENE,70,7.6,11.9,38,0.00,,---,0.00,VWS V14.01,2013-09-25 17:06:00,
2013-09-25 10:11:00,76.8,49.3,29.76,East,96,8.7,10.5,38,0.00,,---,0.00,VWS V14.01,2013-09-25 17:11:00,
2013-09-25 10:16:00,77.4,49.8,29.76,SE,140,11.0,11.0,38,0.00,,---,0.00,VWS V14.01,2013-09-25 17:16:00,
2013-09-25 10:21:00,77.7,50.1,29.76,SE,140,10.5,12.3,38,0.00,,---,0.00,VWS V14.01,2013-09-25 17:21:00,
2013-09-25 10:26:00,77.5,50.0,29.76,SE,144,0.0,0.0,38,0.00,,---,0.00,VWS V14.01,2013-09-25 17:26:00,
2013-09-25 10:31:00,77.9,50.3,29.76,South,172,0.0,0.0,38,0.00,,---,0.00,VWS V14.01,2013-09-25 17:31:00,
2013-09-25 10:36:00,77.7,50.1,29.76,ESE,110,0.0,0.0,38,0.00,,---,0.00,VWS V14.01,2013-09-25 17:36:00,
2013-09-25 10:41:00,77.5,50.0,29.76,ESE,120,0.0,0.0,38,0.00,,---,0.00,VWS V14.01,2013-09-25 17:41:00,
2013-09-25 10:46:00,77.4,49.8,29.76,SE,126,0.0,0.0,38,0.00,,---,0.00,VWS V14.01,2013-09-25 17:46:00,
2013-09-25 10:51:00,77.5,50.0,29.76,SE,141,0.0,0.0,38,0.00,,---,0.00,VWS V14.01,2013-09-25 17:51:00,
2013-09-25 10:56:00,78.3,50.6,29.76,ESE,120,0.0,0.0,38,0.00,,---,0.00,VWS V14.01,2013-09-25 17:56:00,
2013-09-25 11:01:00,78.3,50.6,29.76,ESE,102,0.0,0.0,38,0.00,,---,0.00,VWS V14.01,2013-09-25 18:01:00,
2013-09-25 11:06:00,78.6,50.9,29.76,East,96,0.0,0.0,38,0.00,,---,0.00,VWS V14.01,2013-09-25 18:06:00,
2013-09-25 11:11:00,79.0,50.5,29.76,ESE,118,0.0,0.0,37,0.00,,---,0.00,VWS V14.01,2013-09-25 18:11:00,
2013-09-25 11:16:00,79.0,50.5,29.76,East,85,0.0,0.0,37,0.00,,---,0.00,VWS V14.01,2013-09-25 18:16:00,
2013-09-25 11:21:00,79.3,50.8,29.76,East,96,0.0,0.0,37,0.00,,---,0.00,VWS V14.01,2013-09-25 18:21:00,
2013-09-25 11:26:00,79.9,51.3,29.76,SE,127,0.0,0.0,37,0.00,,---,0.00,VWS V14.01,2013-09-25 18:26:00,
2013-09-25 11:31:00,80.1,51.5,29.76,ESE,121,0.0,0.0,37,0.00,,---,0.00,VWS V14.01,2013-09-25 18:31:00,
2013-09-25 11:36:00,80.2,51.6,29.76,SE,129,0.0,0.0,37,0.00,,---,0.00,VWS V14.01,2013-09-25 18:36:00,
2013-09-25 11:41:00,80.4,51.8,29.76,SSE,153,0.0,0.0,37,0.00,,---,0.00,VWS V14.01,2013-09-25 18:41:00,
2013-09-25 11:46:00,80.8,52.1,29.73,SSE,164,0.0,0.0,37,0.00,,---,0.00,VWS V14.01,2013-09-25 18:46:00,
2013-09-25 11:51:00,80.4,51.8,29.73,SE,145,0.0,0.0,37,0.00,,---,0.00,VWS V14.01,2013-09-25 18:51:00,
2013-09-25 11:56:00,80.4,51.8,29.73,ESE,123,0.0,0.0,37,0.00,,---,0.00,VWS V14.01,2013-09-25 18:56:00,
2013-09-25 12:01:00,81.1,52.4,29.73,SE,137,0.0,0.0,37,0.00,,---,0.00,VWS V14.01,2013-09-25 19:01:00,
2013-09-25 12:07:00,81.0,52.3,29.73,ESE,111,0.0,0.0,37,0.00,,---,0.00,VWS V14.01,2013-09-25 19:07:00,
2013-09-25 12:12:00,81.0,52.3,29.73,ESE,107,0.0,0.0,37,0.00,,---,0.00,VWS V14.01,2013-09-25 19:12:00,
2013-09-25 12:17:00,81.1,52.4,29.73,East,91,0.0,0.0,37,0.00,,---,0.00,VWS V14.01,2013-09-25 19:17:00,
2013-09-25 12:22:00,81.5,52.7,29.73,SE,127,0.0,0.0,37,0.00,,---,0.00,VWS V14.01,2013-09-25 19:22:00,
2013-09-25 12:27:00,81.1,52.4,29.73,ESE,111,0.0,0.0,37,0.00,,---,0.00,VWS V14.01,2013-09-25 19:27:00,
2013-09-25 12:32:00,81.1,52.4,29.73,SE,126,0.0,0.0,37,0.00,,---,0.00,VWS V14.01,2013-09-25 19:32:00,
2013-09-25 12:37:00,81.1,52.4,29.73,SE,128,0.0,0.0,37,0.00,,---,0.00,VWS V14.01,2013-09-25 19:37:00,
2013-09-25 12:42:00,81.5,52.7,29.73,ENE,72,0.0,0.0,37,0.00,,---,0.00,VWS V14.01,2013-09-25 19:42:00,
2013-09-25 12:47:00,82.0,53.2,29.70,SE,125,0.0,0.0,37,0.00,,---,0.00,VWS V14.01,2013-09-25 19:47:00,
2013-09-25 12:52:00,81.7,52.9,29.70,SE,125,0.0,0.0,37,0.00,,---,0.00,VWS V14.01,2013-09-25 19:52:00,
2013-09-25 12:57:00,81.9,53.1,29.70,SSE,158,0.0,0.0,37,0.00,,---,0.00,VWS V14.01,2013-09-25 19:57:00,
2013-09-25 13:02:00,82.0,53.2,29.70,SE,124,0.0,0.0,37,0.00,,---,0.00,VWS V14.01,2013-09-25 20:02:00,
2013-09-25 13:07:00,82.0,53.2,29.70,SE,126,0.0,0.0,37,0.00,,---,0.00,VWS V14.01,2013-09-25 20:07:00,
2013-09-25 13:12:00,82.0,53.2,29.70,ESE,106,0.0,0.0,37,0.00,,---,0.00,VWS V14.01,2013-09-25 20:12:00,
2013-09-25 13:17:00,82.6,53.7,29.70,SE,126,0.0,0.0,37,0.00,,---,0.00,VWS V14.01,2013-09-25 20:17:00,
2013-09-25 13:22:00,82.4,53.5,29.70,SE,144,0.0,0.0,37,0.00,,---,0.00,VWS V14.01,2013-09-25 20:22:00,
2013-09-25 13:27:00,82.8,53.9,29.70,ESE,115,0.0,0.0,37,0.00,,---,0.00,VWS V14.01,2013-09-25 20:27:00,
2013-09-25 13:32:00,83.1,54.2,29.70,East,97,0.0,0.0,37,0.00,,---,0.00,VWS V14.01,2013-09-25 20:32:00,
2013-09-25 13:37:00,83.3,54.3,29.70,SE,126,0.0,0.0,37,0.00,,---,0.00,VWS V14.01,2013-09-25 20:37:00,
2013-09-25 13:42:00,83.1,54.2,29.67,ESE,120,0.0,0.0,37,0.00,,---,0.00,VWS V14.01,2013-09-25 20:42:00,
2013-09-25 13:47:00,83.1,54.2,29.67,SE,138,0.0,0.0,37,0.00,,---,0.00,VWS V14.01,2013-09-25 20:47:00,
2013-09-25 13:52:00,83.7,54.7,29.67,SE,127,0.0,0.0,37,0.00,,---,0.00,VWS V14.01,2013-09-25 20:52:00,
2013-09-25 13:57:00,83.3,54.3,29.67,ESE,111,0.0,0.0,37,0.00,,---,0.00,VWS V14.01,2013-09-25 20:57:00,
2013-09-25 14:02:00,83.3,54.3,29.67,SE,138,0.0,0.0,37,0.00,,---,0.00,VWS V14.01,2013-09-25 21:02:00,
2013-09-25 14:08:00,83.3,54.3,29.67,SE,132,0.0,0.0,37,0.00,,---,0.00,VWS V14.01,2013-09-25 21:08:00,
2013-09-25 14:13:00,83.1,54.2,29.67,SE,143,0.0,0.0,37,0.00,,---,0.00,VWS V14.01,2013-09-25 21:13:00,
2013-09-25 14:18:00,83.1,54.2,29.67,SE,136,0.0,0.0,37,0.00,,---,0.00,VWS V14.01,2013-09-25 21:18:00,
2013-09-25 14:23:00,82.9,54.0,29.67,ESE,117,0.0,0.0,37,0.00,,---,0.00,VWS V14.01,2013-09-25 21:23:00,
2013-09-25 14:28:00,82.8,53.9,29.67,ESE,112,0.0,0.0,37,0.00,,---,0.00,VWS V14.01,2013-09-25 21:28:00,
2013-09-25 14:33:00,82.9,54.0,29.67,ESE,114,0.0,0.0,37,0.00,,---,0.00,VWS V14.01,2013-09-25 21:33:00,
2013-09-25 14:38:00,82.6,53.7,29.67,SSE,149,0.0,0.0,37,0.00,,---,0.00,VWS V14.01,2013-09-25 21:38:00,
2013-09-25 14:43:00,82.2,53.4,29.67,ESE,105,0.0,0.0,37,0.00,,---,0.00,VWS V14.01,2013-09-25 21:43:00,
2013-09-25 14:48:00,82.0,53.2,29.67,ESE,116,0.0,0.0,37,0.00,,---,0.00,VWS V14.01,2013-09-25 21:48:00,
2013-09-25 14:53:00,82.2,53.4,29.67,SE,126,0.0,0.0,37,0.00,,---,0.00,VWS V14.01,2013-09-25 21:53:00,
2013-09-25 14:58:00,82.2,53.4,29.67,ESE,123,0.0,0.0,37,0.00,,---,0.00,VWS V14.01,2013-09-25 21:58:00,
2013-09-25 15:03:00,81.9,53.1,29.67,ESE,110,0.0,0.0,37,0.00,,---,0.00,VWS V14.01,2013-09-25 22:03:00,
2013-09-25 15:08:00,81.9,53.1,29.67,ESE,115,0.0,0.0,37,0.00,,---,0.00,VWS V14.01,2013-09-25 22:08:00,
2013-09-25 15:13:00,81.3,52.6,29.67,SE,131,0.0,0.0,37,0.00,,---,0.00,VWS V14.01,2013-09-25 22:13:00,
2013-09-25 15:18:00,81.3,52.6,29.67,SSE,164,0.0,0.0,37,0.00,,---,0.00,VWS V14.01,2013-09-25 22:18:00,
2013-09-25 15:23:00,81.3,52.6,29.67,ESE,117,0.0,0.0,37,0.00,,---,0.00,VWS V14.01,2013-09-25 22:23:00,
2013-09-25 15:28:00,81.9,53.1,29.67,ESE,123,0.0,0.0,37,0.00,,---,0.00,VWS V14.01,2013-09-25 22:28:00,
2013-09-25 15:34:00,81.7,52.9,29.67,ESE,112,0.0,0.0,37,0.00,,---,0.00,VWS V14.01,2013-09-25 22:34:00,
2013-09-25 15:39:00,81.5,52.7,29.67,SE,126,0.0,0.0,37,0.00,,---,0.00,VWS V14.01,2013-09-25 22:39:00,
2013-09-25 15:44:00,81.3,52.6,29.67,South,169,0.0,0.0,37,0.00,,---,0.00,VWS V14.01,2013-09-25 22:44:00,
2013-09-25 15:49:00,81.3,52.6,29.64,SE,126,0.0,0.0,37,0.00,,---,0.00,VWS V14.01,2013-09-25 22:49:00,
2013-09-25 15:54:00,81.3,52.6,29.64,ESE,115,0.0,0.0,37,0.00,,---,0.00,VWS V14.01,2013-09-25 22:54:00,
2013-09-25 15:59:00,80.8,52.1,29.64,South,169,0.0,0.0,37,0.00,,---,0.00,VWS V14.01,2013-09-25 22:59:00,
2013-09-25 16:04:00,80.6,52.0,29.64,SE,126,0.0,0.0,37,0.00,,---,0.00,VWS V14.01,2013-09-25 23:04:00,
2013-09-25 16:09:00,80.6,52.0,29.64,SE,131,0.0,0.0,37,0.00,,---,0.00,VWS V14.01,2013-09-25 23:09:00,
2013-09-25 16:14:00,80.8,52.1,29.64,ESE,120,0.0,0.0,37,0.00,,---,0.00,VWS V14.01,2013-09-25 23:14:00,
2013-09-25 16:19:00,80.4,51.8,29.64,SE,128,0.0,0.0,37,0.00,,---,0.00,VWS V14.01,2013-09-25 23:19:00,
2013-09-25 16:24:00,80.2,51.6,29.64,SE,125,0.0,0.0,37,0.00,,---,0.00,VWS V14.01,2013-09-25 23:24:00,
2013-09-25 16:29:00,80.1,51.5,29.64,ESE,121,0.0,0.0,37,0.00,,---,0.00,VWS V14.01,2013-09-25 23:29:00,
2013-09-25 16:34:00,79.5,51.0,29.64,ESE,108,0.0,0.0,37,0.00,,---,0.00,VWS V14.01,2013-09-25 23:34:00,
2013-09-25 16:39:00,79.3,50.8,29.64,SE,141,0.0,0.0,37,0.00,,---,0.00,VWS V14.01,2013-09-25 23:39:00,
2013-09-25 16:44:00,79.3,50.8,29.64,ESE,123,0.0,0.0,37,0.00,,---,0.00,VWS V14.01,2013-09-25 23:44:00,
2013-09-25 16:49:00,79.2,50.7,29.64,ESE,103,0.0,0.0,37,0.00,,---,0.00,VWS V14.01,2013-09-25 23:49:00,
2013-09-25 16:54:00,79.2,50.7,29.64,SE,134,0.0,0.0,37,0.00,,---,0.00,VWS V14.01,2013-09-25 23:54:00,
2013-09-25 16:59:00,79.0,50.5,29.64,ESE,102,0.0,0.0,37,0.00,,---,0.00,VWS V14.01,2013-09-25 23:59:00,
2013-09-25 17:04:00,78.6,50.9,29.64,ESE,117,0.0,0.0,38,0.00,,---,0.00,VWS V14.01,2013-09-26 00:04:00,
2013-09-25 17:09:00,78.6,50.9,29.64,SE,125,0.0,0.0,38,0.00,,---,0.00,VWS V14.01,2013-09-26 00:09:00,
2013-09-25 17:15:00,78.3,50.6,29.64,SSE,152,0.0,0.0,38,0.00,,---,0.00,VWS V14.01,2013-09-26 00:15:00,
2013-09-25 17:20:00,78.1,50.4,29.64,SE,144,0.0,0.0,38,0.00,,---,0.00,VWS V14.01,2013-09-26 00:20:00,
2013-09-25 17:25:00,77.7,50.1,29.64,ESE,103,0.0,0.0,38,0.00,,---,0.00,VWS V14.01,2013-09-26 00:25:00,
2013-09-25 17:30:00,77.4,49.8,29.64,SE,130,0.0,0.0,38,0.00,,---,0.00,VWS V14.01,2013-09-26 00:30:00,
2013-09-25 17:35:00,77.0,49.5,29.64,ESE,120,0.0,0.0,38,0.00,,---,0.00,VWS V14.01,2013-09-26 00:35:00,
2013-09-25 17:40:00,76.6,49.2,29.64,SE,140,0.0,0.0,38,0.00,,---,0.00,VWS V14.01,2013-09-26 00:40:00,
2013-09-25 17:45:00,76.5,49.0,29.64,South,172,0.0,0.0,38,0.00,,---,0.00,VWS V14.01,2013-09-26 00:45:00,
2013-09-25 17:50:00,75.9,48.5,29.64,SE,129,0.0,0.0,38,0.00,,---,0.00,VWS V14.01,2013-09-26 00:50:00,
2013-09-25 17:55:00,75.9,48.5,29.64,SE,129,0.0,0.0,38,0.00,,---,0.00,VWS V14.01,2013-09-26 00:55:00,
2013-09-25 18:00:00,75.9,48.5,29.64,SE,125,0.0,0.0,38,0.00,,---,0.00,VWS V14.01,2013-09-26 01:00:00,
2013-09-25 18:05:00,75.7,48.4,29.64,SE,131,0.0,0.0,38,0.00,,---,0.00,VWS V14.01,2013-09-26 01:05:00,
2013-09-25 18:10:00,75.4,48.0,29.64,ESE,115,0.0,0.0,38,0.00,,---,0.00,VWS V14.01,2013-09-26 01:10:00,
2013-09-25 18:15:00,75.4,48.0,29.64,SE,134,0.0,0.0,38,0.00,,---,0.00,VWS V14.01,2013-09-26 01:15:00,
2013-09-25 18:20:00,75.4,48.0,29.64,ESE,109,0.0,0.0,38,0.00,,---,0.00,VWS V14.01,2013-09-26 01:20:00,
2013-09-25 18:25:00,74.8,47.6,29.64,ESE,122,0.0,0.0,38,0.00,,---,0.00,VWS V14.01,2013-09-26 01:25:00,
2013-09-25 18:30:00,74.7,47.4,29.64,SE,130,0.0,0.0,38,0.00,,---,0.00,VWS V14.01,2013-09-26 01:30:00,
2013-09-25 18:35:00,74.5,47.2,29.64,ESE,113,0.0,0.0,38,0.00,,---,0.00,VWS V14.01,2013-09-26 01:35:00,
2013-09-25 18:40:00,73.9,46.8,29.64,SE,130,0.0,0.0,38,0.00,,---,0.00,VWS V14.01,2013-09-26 01:40:00,
2013-09-25 18:45:00,73.8,46.6,29.64,ESE,107,0.0,0.0,38,0.00,,---,0.00,VWS V14.01,2013-09-26 01:45:00,
2013-09-25 18:50:00,73.6,46.4,29.64,SE,141,0.0,0.0,38,0.00,,---,0.00,VWS V14.01,2013-09-26 01:50:00,
2013-09-25 18:55:00,73.2,46.8,29.64,SSE,155,0.0,0.0,39,0.00,,---,0.00,VWS V14.01,2013-09-26 01:55:00,
2013-09-25 19:00:00,73.0,46.6,29.64,SE,126,0.0,0.0,39,0.00,,---,0.00,VWS V14.01,2013-09-26 02:00:00,
2013-09-25 19:05:00,73.0,46.6,29.64,ESE,109,5.4,7.6,39,0.00,,---,0.00,VWS V14.01,2013-09-26 02:05:00,
2013-09-25 19:10:00,72.7,46.3,29.64,East,97,0.0,0.0,39,0.00,,---,0.00,VWS V14.01,2013-09-26 02:10:00,
2013-09-25 19:15:00,72.0,45.7,29.64,SE,130,0.0,0.0,39,0.00,,---,0.00,VWS V14.01,2013-09-26 02:15:00,
2013-09-25 19:20:00,71.6,45.4,29.64,ESE,106,4.0,4.0,39,0.00,,---,0.00,VWS V14.01,2013-09-26 02:20:00,
2013-09-25 19:25:00,71.4,45.2,29.64,ESE,109,0.0,0.0,39,0.00,,---,0.00,VWS V14.01,2013-09-26 02:25:00,
2013-09-25 19:31:00,71.1,44.9,29.64,ENE,74,5.4,5.4,39,0.00,,---,0.00,VWS V14.01,2013-09-26 02:31:00,
2013-09-25 19:36:00,71.1,44.9,29.64,ESE,111,7.6,7.6,39,0.00,,---,0.00,VWS V14.01,2013-09-26 02:36:00,
2013-09-25 19:41:00,71.1,44.9,29.64,SE,128,6.3,6.3,39,0.00,,---,0.00,VWS V14.01,2013-09-26 02:41:00,
2013-09-25 19:46:00,70.9,44.7,29.64,ESE,120,3.1,3.1,39,0.00,,---,0.00,VWS V14.01,2013-09-26 02:46:00,
2013-09-25 19:51:00,70.5,44.4,29.64,East,96,3.1,3.1,39,0.00,,---,0.00,VWS V14.01,2013-09-26 02:51:00,
2013-09-25 19:56:00,70.2,44.1,29.67,East,98,3.6,4.0,39,0.00,,---,0.00,VWS V14.01,2013-09-26 02:56:00,
2013-09-25 20:01:00,70.0,43.9,29.67,East,97,4.5,4.5,39,0.00,,---,0.00,VWS V14.01,2013-09-26 03:01:00,
2013-09-25 20:07:00,70.0,43.9,29.67,East,90,4.0,4.0,39,0.00,,---,0.00,VWS V14.01,2013-09-26 03:07:00,
2013-09-25 20:12:00,69.8,43.8,29.67,East,85,3.6,3.6,39,0.00,,---,0.00,VWS V14.01,2013-09-26 03:12:00,
2013-09-25 20:17:00,69.4,44.1,29.67,ESE,104,4.9,4.9,40,0.00,,---,0.00,VWS V14.01,2013-09-26 03:17:00,
2013-09-25 20:22:00,69.1,43.8,29.67,East,84,4.0,4.0,40,0.00,,---,0.00,VWS V14.01,2013-09-26 03:22:00,
2013-09-25 20:27:00,68.7,43.5,29.67,ENE,77,4.0,4.0,40,0.00,,---,0.00,VWS V14.01,2013-09-26 03:27:00,
2013-09-25 20:32:00,68.5,43.3,29.67,ESE,109,5.4,5.8,40,0.00,,---,0.00,VWS V14.01,2013-09-26 03:32:00,
2013-09-25 20:37:00,68.7,43.5,29.67,ESE,113,3.6,3.6,40,0.00,,---,0.00,VWS V14.01,2013-09-26 03:37:00,
2013-09-25 20:42:00,68.7,43.5,29.67,ESE,113,4.0,4.0,40,0.00,,---,0.00,VWS V14.01,2013-09-26 03:42:00,
2013-09-25 20:47:00,68.7,43.5,29.67,East,85,0.0,0.0,40,0.00,,---,0.00,VWS V14.01,2013-09-26 03:47:00,
2013-09-25 20:52:00,68.9,43.6,29.67,ESE,114,0.0,0.0,40,0.00,,---,0.00,VWS V14.01,2013-09-26 03:52:00,
2013-09-25 20:58:00,68.9,43.6,29.67,SE,130,0.0,0.0,40,0.00,,---,0.00,VWS V14.01,2013-09-26 03:58:00,
2013-09-25 21:01:00,68.9,43.6,29.67,ESE,104,0.0,0.0,40,0.00,,---,0.00,VWS V14.01,2013-09-26 04:01:00,
2013-09-25 21:03:00,68.9,43.6,29.67,East,91,0.0,0.0,40,0.00,,---,0.00,VWS V14.01,2013-09-26 04:03:00,
2013-09-25 21:05:00,68.9,43.6,29.67,ESE,115,0.0,0.0,40,0.00,,---,0.00,VWS V14.01,2013-09-26 04:05:00,
2013-09-25 21:10:00,68.5,43.3,29.67,ESE,104,0.0,0.0,40,0.00,,---,0.00,VWS V14.01,2013-09-26 04:10:00,
2013-09-25 21:15:00,68.4,43.1,29.67,SE,144,0.0,0.0,40,0.00,,---,0.00,VWS V14.01,2013-09-26 04:15:00,
2013-09-25 21:20:00,68.4,43.1,29.67,SSE,150,0.0,0.0,40,0.00,,---,0.00,VWS V14.01,2013-09-26 04:20:00,
2013-09-25 21:25:00,68.0,42.8,29.67,ENE,76,0.0,0.0,40,0.00,,---,0.00,VWS V14.01,2013-09-26 04:25:00,
2013-09-25 21:31:00,68.2,43.0,29.67,East,90,0.0,0.0,40,0.00,,---,0.00,VWS V14.01,2013-09-26 04:31:00,
2013-09-25 21:36:00,68.2,43.0,29.67,ENE,77,0.0,0.0,40,0.00,,---,0.00,VWS V14.01,2013-09-26 04:36:00,
2013-09-25 21:41:00,68.4,43.1,29.67,East,100,0.0,0.0,40,0.00,,---,0.00,VWS V14.01,2013-09-26 04:41:00,
2013-09-25 21:46:00,68.4,43.1,29.67,ESE,121,0.0,0.0,40,0.00,,---,0.00,VWS V14.01,2013-09-26 04:46:00,
2013-09-25 21:51:00,68.2,43.0,29.67,ESE,120,0.0,0.0,40,0.00,,---,0.00,VWS V14.01,2013-09-26 04:51:00,
2013-09-25 21:56:00,68.2,43.0,29.67,ESE,116,0.0,0.0,40,0.00,,---,0.00,VWS V14.01,2013-09-26 04:56:00,
2013-09-25 22:01:00,67.6,42.5,29.67,SE,128,0.0,0.0,40,0.00,,---,0.00,VWS V14.01,2013-09-26 05:01:00,
2013-09-25 22:06:00,67.3,42.2,29.67,SE,127,0.0,0.0,40,0.00,,---,0.00,VWS V14.01,2013-09-26 05:06:00,
2013-09-25 22:11:00,67.1,42.0,29.67,ESE,115,0.0,0.0,40,0.00,,---,0.00,VWS V14.01,2013-09-26 05:11:00,
2013-09-25 22:16:00,66.9,41.8,29.67,ESE,107,0.0,0.0,40,0.00,,---,0.00,VWS V14.01,2013-09-26 05:16:00,
2013-09-25 22:21:00,66.9,41.8,29.67,ESE,111,0.0,0.0,40,0.00,,---,0.00,VWS V14.01,2013-09-26 05:21:00,
2013-09-25 22:26:00,66.4,41.3,29.67,ESE,119,0.0,0.0,40,0.00,,---,0.00,VWS V14.01,2013-09-26 05:26:00,
2013-09-25 22:31:00,66.6,41.5,29.67,SE,127,0.0,0.0,40,0.00,,---,0.00,VWS V14.01,2013-09-26 05:31:00,
2013-09-25 22:36:00,66.7,41.7,29.67,ENE,65,0.0,0.0,40,0.00,,---,0.00,VWS V14.01,2013-09-26 05:36:00,
2013-09-25 22:41:00,67.3,42.2,29.67,East,95,0.0,0.0,40,0.00,,---,0.00,VWS V14.01,2013-09-26 05:41:00,
2013-09-25 22:46:00,66.9,41.8,29.67,East,98,0.0,0.0,40,0.00,,---,0.00,VWS V14.01,2013-09-26 05:46:00,
2013-09-25 22:51:00,66.4,41.3,29.67,East,81,0.0,0.0,40,0.00,,---,0.00,VWS V14.01,2013-09-26 05:51:00,
2013-09-25 22:56:00,66.2,41.2,29.67,ESE,108,0.0,0.0,40,0.00,,---,0.00,VWS V14.01,2013-09-26 05:56:00,
2013-09-25 23:01:00,66.2,41.2,29.67,East,94,0.0,0.0,40,0.00,,---,0.00,VWS V14.01,2013-09-26 06:01:00,
2013-09-25 23:06:00,66.7,41.7,29.67,East,94,0.0,0.0,40,0.00,,---,0.00,VWS V14.01,2013-09-26 06:06:00,
2013-09-25 23:12:00,66.7,41.7,29.67,ESE,106,0.0,0.0,40,0.00,,---,0.00,VWS V14.01,2013-09-26 06:12:00,
2013-09-25 23:17:00,66.6,41.5,29.67,SE,132,0.0,0.0,40,0.00,,---,0.00,VWS V14.01,2013-09-26 06:17:00,
2013-09-25 23:22:00,66.4,41.3,29.67,ESE,105,0.0,0.0,40,0.00,,---,0.00,VWS V14.01,2013-09-26 06:22:00,
2013-09-25 23:27:00,66.4,41.3,29.67,ESE,102,0.0,0.0,40,0.00,,---,0.00,VWS V14.01,2013-09-26 06:27:00,
2013-09-25 23:32:00,66.7,41.7,29.67,East,99,0.0,0.0,40,0.00,,---,0.00,VWS V14.01,2013-09-26 06:32:00,
2013-09-25 23:37:00,66.9,41.8,29.67,East,85,0.0,0.0,40,0.00,,---,0.00,VWS V14.01,2013-09-26 06:37:00,
2013-09-25 23:42:00,66.7,41.7,29.67,ESE,104,0.0,0.0,40,0.00,,---,0.00,VWS V14.01,2013-09-26 06:42:00,
2013-09-25 23:47:00,66.7,41.7,29.67,East,90,0.0,0.0,40,0.00,,---,0.00,VWS V14.01,2013-09-26 06:47:00,
2013-09-25 23:52:00,66.4,41.3,29.67,ENE,64,0.0,0.0,40,0.00,,---,0.00,VWS V14.01,2013-09-26 06:52:00,
2013-09-25 23:57:00,66.4,41.3,29.67,ESE,102,0.0,0.0,40,0.00,,---,0.00,VWS V14.01,2013-09-26 06:57:00,